sensor_id;sensor_type;location;lat;lon;timestamp;pressure;altitude;pressure_sealevel;temperature;humidity
33191;BME280;19554;42.652;23.364;2022-09-27T00:01:03;93718.25;;;16.37;80.33
33191;BME280;19554;42.652;23.364;2022-09-27T00:03:30;93720.06;;;16.17;81.64
33191;BME280;19554;42.652;23.364;2022-09-27T00:06:10;93709.53;;;15.84;83.98
33191;BME280;19554;42.652;23.364;2022-09-27T00:08:36;93715.81;;;15.76;85.03
33191;BME280;19554;42.652;23.364;2022-09-27T00:11:07;93716.84;;;15.83;84.79
33191;BME280;19554;42.652;23.364;2022-09-27T00:13:33;93717.22;;;15.98;85.17
33191;BME280;19554;42.652;23.364;2022-09-27T00:16:00;93700.72;;;15.99;84.73
33191;BME280;19554;42.652;23.364;2022-09-27T00:18:27;93645.38;;;15.58;83.48
33191;BME280;19554;42.652;23.364;2022-09-27T00:20:53;93734.25;;;16.02;83.67
33191;BME280;19554;42.652;23.364;2022-09-27T00:23:18;93746.06;;;16.13;84.01
33191;BME280;19554;42.652;23.364;2022-09-27T00:25:57;93733.44;;;16.29;83.40
33191;BME280;19554;42.652;23.364;2022-09-27T00:28:23;93720.75;;;16.14;83.50
33191;BME280;19554;42.652;23.364;2022-09-27T00:30:49;93724.44;;;15.81;84.28
33191;BME280;19554;42.652;23.364;2022-09-27T00:33:14;93657.72;;;15.06;86.77
33191;BME280;19554;42.652;23.364;2022-09-27T00:35:40;93733.03;;;15.34;88.10
33191;BME280;19554;42.652;23.364;2022-09-27T00:38:05;93738.53;;;15.38;88.74
33191;BME280;19554;42.652;23.364;2022-09-27T00:40:31;93730.56;;;15.54;88.60
33191;BME280;19554;42.652;23.364;2022-09-27T00:42:57;93718.50;;;15.35;86.60
33191;BME280;19554;42.652;23.364;2022-09-27T00:45:22;93716.69;;;15.27;87.37
33191;BME280;19554;42.652;23.364;2022-09-27T00:47:55;93736.66;;;15.26;87.44
33191;BME280;19554;42.652;23.364;2022-09-27T00:50:32;93702.84;;;15.13;88.70
33191;BME280;19554;42.652;23.364;2022-09-27T00:55:35;93746.63;;;15.26;89.41
33191;BME280;19554;42.652;23.364;2022-09-27T00:58:02;93712.22;;;15.31;88.77
33191;BME280;19554;42.652;23.364;2022-09-27T01:00:29;93730.91;;;15.52;87.54
33191;BME280;19554;42.652;23.364;2022-09-27T01:02:55;93730.66;;;15.70;87.31
33191;BME280;19554;42.652;23.364;2022-09-27T01:05:25;93695.94;;;15.52;86.72
33191;BME280;19554;42.652;23.364;2022-09-27T01:07:51;93695.72;;;15.45;86.77
33191;BME280;19554;42.652;23.364;2022-09-27T01:10:21;93631.72;;;15.10;86.47
33191;BME280;19554;42.652;23.364;2022-09-27T01:15:44;93688.00;;;15.44;86.04
33191;BME280;19554;42.652;23.364;2022-09-27T01:29:11;93680.50;;;15.49;86.47
33191;BME280;19554;42.652;23.364;2022-09-27T01:31:41;93696.81;;;15.56;86.99
33191;BME280;19554;42.652;23.364;2022-09-27T01:39:50;93687.16;;;15.68;86.65
33191;BME280;19554;42.652;23.364;2022-09-27T01:42:27;93670.38;;;15.18;87.95
33191;BME280;19554;42.652;23.364;2022-09-27T01:45:16;93708.00;;;15.18;89.63
33191;BME280;19554;42.652;23.364;2022-09-27T01:47:49;93683.66;;;15.27;89.65
33191;BME280;19554;42.652;23.364;2022-09-27T01:50:20;93639.72;;;14.95;89.14
33191;BME280;19554;42.652;23.364;2022-09-27T01:52:54;93678.84;;;15.20;88.87
33191;BME280;19554;42.652;23.364;2022-09-27T01:55:24;93695.22;;;15.15;88.75
33191;BME280;19554;42.652;23.364;2022-09-27T01:58:03;93685.31;;;15.31;89.62
33191;BME280;19554;42.652;23.364;2022-09-27T02:00:31;93694.53;;;15.30;90.25
33191;BME280;19554;42.652;23.364;2022-09-27T02:03:04;93667.22;;;15.28;90.23
33191;BME280;19554;42.652;23.364;2022-09-27T02:06:00;93692.69;;;15.47;90.77
33191;BME280;19554;42.652;23.364;2022-09-27T02:11:13;93668.13;;;15.48;87.87
33191;BME280;19554;42.652;23.364;2022-09-27T02:19:13;93661.44;;;15.82;87.44
33191;BME280;19554;42.652;23.364;2022-09-27T02:24:37;93632.19;;;15.53;88.15
33191;BME280;19554;42.652;23.364;2022-09-27T02:27:12;93641.84;;;15.41;89.09
33191;BME280;19554;42.652;23.364;2022-09-27T02:29:45;93661.66;;;15.49;89.02
33191;BME280;19554;42.652;23.364;2022-09-27T02:32:14;93615.84;;;15.46;89.72
33191;BME280;19554;42.652;23.364;2022-09-27T02:34:40;93549.25;;;14.99;90.40
33191;BME280;19554;42.652;23.364;2022-09-27T02:37:08;93529.19;;;14.68;91.87
33191;BME280;19554;42.652;23.364;2022-09-27T02:39:33;93606.34;;;15.08;92.10
33191;BME280;19554;42.652;23.364;2022-09-27T02:41:59;93593.03;;;14.87;92.89
33191;BME280;19554;42.652;23.364;2022-09-27T02:44:25;93586.41;;;14.97;93.34
33191;BME280;19554;42.652;23.364;2022-09-27T02:47:25;93544.50;;;14.67;93.13
33191;BME280;19554;42.652;23.364;2022-09-27T02:52:47;93533.09;;;14.71;92.52
33191;BME280;19554;42.652;23.364;2022-09-27T03:00:16;93599.78;;;15.21;92.07
33191;BME280;19554;42.652;23.364;2022-09-27T03:03:04;93635.78;;;15.45;91.90
33191;BME280;19554;42.652;23.364;2022-09-27T03:05:38;93623.06;;;15.57;90.67
33191;BME280;19554;42.652;23.364;2022-09-27T03:08:05;93552.63;;;15.24;90.54
33191;BME280;19554;42.652;23.364;2022-09-27T03:10:31;93485.31;;;14.64;90.93
33191;BME280;19554;42.652;23.364;2022-09-27T03:12:57;93571.63;;;14.90;93.65
33191;BME280;19554;42.652;23.364;2022-09-27T03:15:25;93575.44;;;15.02;94.24
33191;BME280;19554;42.652;23.364;2022-09-27T03:17:50;93547.06;;;14.76;95.21
33191;BME280;19554;42.652;23.364;2022-09-27T03:20:16;93537.69;;;14.45;98.70
33191;BME280;19554;42.652;23.364;2022-09-27T03:22:42;93565.78;;;14.60;98.48
33191;BME280;19554;42.652;23.364;2022-09-27T03:25:07;93531.88;;;14.56;98.99
33191;BME280;19554;42.652;23.364;2022-09-27T03:27:33;93529.84;;;14.53;98.74
33191;BME280;19554;42.652;23.364;2022-09-27T03:29:59;93547.81;;;14.77;97.71
33191;BME280;19554;42.652;23.364;2022-09-27T03:32:25;93522.84;;;14.88;96.62
33191;BME280;19554;42.652;23.364;2022-09-27T03:34:51;93468.09;;;14.53;96.28
33191;BME280;19554;42.652;23.364;2022-09-27T03:37:20;93544.56;;;15.24;94.06
33191;BME280;19554;42.652;23.364;2022-09-27T03:39:45;93542.41;;;15.29;92.84
33191;BME280;19554;42.652;23.364;2022-09-27T03:42:11;93553.34;;;15.36;92.77
33191;BME280;19554;42.652;23.364;2022-09-27T03:44:36;93539.75;;;15.45;91.96
33191;BME280;19554;42.652;23.364;2022-09-27T03:47:02;93536.03;;;15.50;91.83
33191;BME280;19554;42.652;23.364;2022-09-27T03:49:27;93535.53;;;15.60;91.32
33191;BME280;19554;42.652;23.364;2022-09-27T03:51:53;93531.22;;;15.71;89.73
33191;BME280;19554;42.652;23.364;2022-09-27T03:54:18;93526.31;;;15.73;89.71
33191;BME280;19554;42.652;23.364;2022-09-27T03:56:44;93544.97;;;15.66;89.05
33191;BME280;19554;42.652;23.364;2022-09-27T03:59:09;93552.75;;;15.71;88.78
33191;BME280;19554;42.652;23.364;2022-09-27T04:01:35;93543.59;;;15.60;89.83
33191;BME280;19554;42.652;23.364;2022-09-27T04:04:03;93560.50;;;15.73;89.92
33191;BME280;19554;42.652;23.364;2022-09-27T04:06:28;93542.69;;;15.68;89.34
33191;BME280;19554;42.652;23.364;2022-09-27T04:08:54;93560.78;;;15.83;89.18
33191;BME280;19554;42.652;23.364;2022-09-27T04:11:19;93536.78;;;15.78;88.84
33191;BME280;19554;42.652;23.364;2022-09-27T04:13:47;93546.44;;;15.95;88.83
33191;BME280;19554;42.652;23.364;2022-09-27T04:16:13;93527.06;;;15.90;87.97
33191;BME280;19554;42.652;23.364;2022-09-27T04:18:40;93528.66;;;15.91;88.70
33191;BME280;19554;42.652;23.364;2022-09-27T04:21:05;93535.16;;;16.05;88.55
33191;BME280;19554;42.652;23.364;2022-09-27T04:23:31;93528.31;;;16.08;87.46
33191;BME280;19554;42.652;23.364;2022-09-27T04:25:56;93514.41;;;16.06;87.25
33191;BME280;19554;42.652;23.364;2022-09-27T04:28:21;93531.69;;;16.05;87.27
33191;BME280;19554;42.652;23.364;2022-09-27T04:30:47;93548.19;;;16.03;87.17
33191;BME280;19554;42.652;23.364;2022-09-27T04:33:13;93532.81;;;16.04;87.28
33191;BME280;19554;42.652;23.364;2022-09-27T04:35:39;93545.31;;;16.12;87.37
33191;BME280;19554;42.652;23.364;2022-09-27T04:38:22;93533.84;;;16.15;87.00
33191;BME280;19554;42.652;23.364;2022-09-27T04:40:49;93532.81;;;16.04;87.33
33191;BME280;19554;42.652;23.364;2022-09-27T04:43:15;93541.41;;;16.09;87.14
33191;BME280;19554;42.652;23.364;2022-09-27T04:45:42;93519.63;;;15.83;87.85
33191;BME280;19554;42.652;23.364;2022-09-27T04:48:08;93542.16;;;15.78;88.99
33191;BME280;19554;42.652;23.364;2022-09-27T04:50:33;93552.69;;;15.83;89.35
33191;BME280;19554;42.652;23.364;2022-09-27T04:52:59;93559.34;;;15.90;89.11
33191;BME280;19554;42.652;23.364;2022-09-27T04:55:24;93548.41;;;15.82;89.54
33191;BME280;19554;42.652;23.364;2022-09-27T04:57:49;93560.78;;;15.83;89.73
33191;BME280;19554;42.652;23.364;2022-09-27T05:00:15;93566.25;;;15.87;89.63
33191;BME280;19554;42.652;23.364;2022-09-27T05:02:45;93552.84;;;15.75;90.54
33191;BME280;19554;42.652;23.364;2022-09-27T05:05:13;93552.38;;;15.57;91.20
33191;BME280;19554;42.652;23.364;2022-09-27T05:07:38;93555.22;;;15.64;91.00
33191;BME280;19554;42.652;23.364;2022-09-27T05:10:05;93538.38;;;15.51;91.66
33191;BME280;19554;42.652;23.364;2022-09-27T05:12:30;93552.19;;;15.50;90.82
33191;BME280;19554;42.652;23.364;2022-09-27T05:14:56;93535.66;;;15.35;91.81
33191;BME280;19554;42.652;23.364;2022-09-27T05:17:21;93533.69;;;15.48;92.88
33191;BME280;19554;42.652;23.364;2022-09-27T05:19:48;93455.53;;;14.97;92.43
33191;BME280;19554;42.652;23.364;2022-09-27T05:22:13;93537.97;;;15.65;92.54
33191;BME280;19554;42.652;23.364;2022-09-27T05:24:39;93534.28;;;15.85;91.14
33191;BME280;19554;42.652;23.364;2022-09-27T05:27:04;93537.66;;;15.82;90.07
33191;BME280;19554;42.652;23.364;2022-09-27T05:29:33;93546.81;;;15.94;89.82
33191;BME280;19554;42.652;23.364;2022-09-27T05:32:00;93538.22;;;16.04;89.33
33191;BME280;19554;42.652;23.364;2022-09-27T05:34:25;93515.63;;;15.93;88.93
33191;BME280;19554;42.652;23.364;2022-09-27T05:36:50;93513.63;;;15.90;89.12
33191;BME280;19554;42.652;23.364;2022-09-27T05:39:16;93529.69;;;16.02;89.09
33191;BME280;19554;42.652;23.364;2022-09-27T05:41:42;93526.03;;;16.10;88.67
33191;BME280;19554;42.652;23.364;2022-09-27T05:44:08;93511.28;;;15.88;89.38
33191;BME280;19554;42.652;23.364;2022-09-27T05:46:34;93536.97;;;15.85;89.14
33191;BME280;19554;42.652;23.364;2022-09-27T05:48:59;93541.84;;;15.96;89.20
33191;BME280;19554;42.652;23.364;2022-09-27T05:51:24;93523.72;;;15.64;90.58
33191;BME280;19554;42.652;23.364;2022-09-27T05:53:50;93539.34;;;15.87;89.78
33191;BME280;19554;42.652;23.364;2022-09-27T05:56:15;93527.50;;;15.92;89.19
33191;BME280;19554;42.652;23.364;2022-09-27T05:58:41;93542.91;;;16.07;88.86
33191;BME280;19554;42.652;23.364;2022-09-27T06:01:07;93533.00;;;16.11;88.23
33191;BME280;19554;42.652;23.364;2022-09-27T06:03:33;93519.78;;;15.74;91.16
33191;BME280;19554;42.652;23.364;2022-09-27T06:06:03;93534.38;;;15.73;90.90
33191;BME280;19554;42.652;23.364;2022-09-27T06:08:34;93532.47;;;15.74;92.08
33191;BME280;19554;42.652;23.364;2022-09-27T06:11:08;93524.41;;;15.46;93.36
33191;BME280;19554;42.652;23.364;2022-09-27T06:13:34;93533.59;;;15.45;94.30
33191;BME280;19554;42.652;23.364;2022-09-27T06:16:01;93461.63;;;15.10;92.60
33191;BME280;19554;42.652;23.364;2022-09-27T06:18:27;93525.75;;;15.68;91.98
33191;BME280;19554;42.652;23.364;2022-09-27T06:20:53;93514.31;;;15.71;92.98
33191;BME280;19554;42.652;23.364;2022-09-27T06:23:21;93515.50;;;15.57;93.34
33191;BME280;19554;42.652;23.364;2022-09-27T06:25:48;93536.41;;;15.64;93.80
33191;BME280;19554;42.652;23.364;2022-09-27T06:28:15;93514.69;;;15.69;94.15
33191;BME280;19554;42.652;23.364;2022-09-27T06:30:43;93510.19;;;15.61;94.37
33191;BME280;19554;42.652;23.364;2022-09-27T06:33:11;93529.69;;;15.70;94.30
33191;BME280;19554;42.652;23.364;2022-09-27T06:35:37;93507.94;;;15.63;94.21
33191;BME280;19554;42.652;23.364;2022-09-27T06:38:04;93513.06;;;15.24;96.39
33191;BME280;19554;42.652;23.364;2022-09-27T06:40:31;93538.97;;;15.45;96.88
33191;BME280;19554;42.652;23.364;2022-09-27T06:43:03;93532.63;;;15.37;97.61
33191;BME280;19554;42.652;23.364;2022-09-27T06:45:29;93540.25;;;15.35;98.33
33191;BME280;19554;42.652;23.364;2022-09-27T06:47:56;93524.00;;;15.31;98.18
33191;BME280;19554;42.652;23.364;2022-09-27T06:50:21;93536.91;;;15.54;98.08
33191;BME280;19554;42.652;23.364;2022-09-27T06:52:47;93540.44;;;15.70;97.09
33191;BME280;19554;42.652;23.364;2022-09-27T06:55:14;93519.59;;;15.67;96.33
33191;BME280;19554;42.652;23.364;2022-09-27T06:57:39;93533.69;;;15.76;95.48
33191;BME280;19554;42.652;23.364;2022-09-27T07:00:24;93455.00;;;15.35;95.99
33191;BME280;19554;42.652;23.364;2022-09-27T07:02:52;93527.88;;;15.90;94.81
33191;BME280;19554;42.652;23.364;2022-09-27T07:05:18;93530.53;;;16.06;93.54
33191;BME280;19554;42.652;23.364;2022-09-27T07:07:44;93469.97;;;15.80;92.15
33191;BME280;19554;42.652;23.364;2022-09-27T07:10:11;93509.09;;;16.09;91.21
33191;BME280;19554;42.652;23.364;2022-09-27T07:12:37;93526.38;;;16.24;90.62
33191;BME280;19554;42.652;23.364;2022-09-27T07:15:03;93530.97;;;16.24;91.00
33191;BME280;19554;42.652;23.364;2022-09-27T07:17:29;93545.03;;;16.33;91.85
33191;BME280;19554;42.652;23.364;2022-09-27T07:19:54;93528.25;;;16.40;92.53
33191;BME280;19554;42.652;23.364;2022-09-27T07:22:20;93520.31;;;16.27;91.63
33191;BME280;19554;42.652;23.364;2022-09-27T07:24:46;93513.69;;;16.09;93.07
33191;BME280;19554;42.652;23.364;2022-09-27T07:27:11;93475.34;;;15.80;93.88
33191;BME280;19554;42.652;23.364;2022-09-27T07:29:37;93534.09;;;16.26;93.32
33191;BME280;19554;42.652;23.364;2022-09-27T07:32:02;93517.44;;;16.04;92.89
33191;BME280;19554;42.652;23.364;2022-09-27T07:34:28;93485.44;;;15.55;93.41
33191;BME280;19554;42.652;23.364;2022-09-27T07:36:59;93517.03;;;15.86;94.38
33191;BME280;19554;42.652;23.364;2022-09-27T07:39:25;93534.38;;;15.89;93.72
33191;BME280;19554;42.652;23.364;2022-09-27T07:41:51;93542.09;;;15.91;93.85
33191;BME280;19554;42.652;23.364;2022-09-27T07:44:16;93558.44;;;15.98;94.12
33191;BME280;19554;42.652;23.364;2022-09-27T07:46:42;93566.69;;;16.05;94.11
33191;BME280;19554;42.652;23.364;2022-09-27T07:49:07;93513.53;;;15.70;93.66
33191;BME280;19554;42.652;23.364;2022-09-27T07:51:33;93499.81;;;15.75;92.95
33191;BME280;19554;42.652;23.364;2022-09-27T07:53:59;93555.31;;;16.11;92.88
33191;BME280;19554;42.652;23.364;2022-09-27T07:56:26;93563.63;;;16.22;92.71
33191;BME280;19554;42.652;23.364;2022-09-27T07:58:51;93554.78;;;16.22;92.77
33191;BME280;19554;42.652;23.364;2022-09-27T08:01:16;93564.78;;;16.21;93.42
33191;BME280;19554;42.652;23.364;2022-09-27T08:03:42;93570.56;;;16.23;93.83
33191;BME280;19554;42.652;23.364;2022-09-27T08:06:08;93548.94;;;16.35;92.43
33191;BME280;19554;42.652;23.364;2022-09-27T08:08:33;93515.78;;;16.00;94.62
33191;BME280;19554;42.652;23.364;2022-09-27T08:10:59;93512.69;;;15.66;98.55
33191;BME280;19554;42.652;23.364;2022-09-27T08:13:24;93523.44;;;15.82;98.82
33191;BME280;19554;42.652;23.364;2022-09-27T08:15:50;93517.88;;;15.91;99.07
33191;BME280;19554;42.652;23.364;2022-09-27T08:18:16;93497.88;;;15.60;100.00
33191;BME280;19554;42.652;23.364;2022-09-27T08:20:42;93458.06;;;15.06;100.00
33191;BME280;19554;42.652;23.364;2022-09-27T08:23:08;93531.53;;;15.54;100.00
33191;BME280;19554;42.652;23.364;2022-09-27T08:25:34;93516.03;;;15.35;100.00
33191;BME280;19554;42.652;23.364;2022-09-27T08:28:01;93553.91;;;15.70;100.00
33191;BME280;19554;42.652;23.364;2022-09-27T08:30:28;93480.94;;;15.44;100.00
33191;BME280;19554;42.652;23.364;2022-09-27T08:33:00;93538.44;;;15.99;100.00
33191;BME280;19554;42.652;23.364;2022-09-27T08:35:27;93522.31;;;16.15;99.58
33191;BME280;19554;42.652;23.364;2022-09-27T08:37:55;93496.69;;;16.05;98.49
33191;BME280;19554;42.652;23.364;2022-09-27T08:40:23;93497.47;;;16.05;97.91
33191;BME280;19554;42.652;23.364;2022-09-27T08:48:20;93477.22;;;16.27;97.75
33191;BME280;19554;42.652;23.364;2022-09-27T08:50:47;93512.94;;;16.59;96.52
33191;BME280;19554;42.652;23.364;2022-09-27T08:53:16;93509.69;;;16.70;95.17
33191;BME280;19554;42.652;23.364;2022-09-27T09:00:54;93506.47;;;16.64;95.18
33191;BME280;19554;42.652;23.364;2022-09-27T09:03:27;93501.41;;;16.78;94.40
33191;BME280;19554;42.652;23.364;2022-09-27T09:06:27;93467.31;;;16.51;94.58
33191;BME280;19554;42.652;23.364;2022-09-27T09:18:14;93463.94;;;16.73;95.30
33191;BME280;19554;42.652;23.364;2022-09-27T09:21:00;93478.44;;;16.85;94.38
33191;BME280;19554;42.652;23.364;2022-09-27T09:23:45;93476.88;;;16.84;93.94
33191;BME280;19554;42.652;23.364;2022-09-27T09:26:14;93498.31;;;16.96;94.13
33191;BME280;19554;42.652;23.364;2022-09-27T09:34:21;93506.81;;;16.78;95.90
33191;BME280;19554;42.652;23.364;2022-09-27T09:39:32;93474.47;;;16.78;96.70
33191;BME280;19554;42.652;23.364;2022-09-27T09:42:21;93488.47;;;16.68;97.23
33191;BME280;19554;42.652;23.364;2022-09-27T09:47:31;93399.63;;;16.33;97.22
33191;BME280;19554;42.652;23.364;2022-09-27T09:50:31;93477.88;;;16.75;97.39
33191;BME280;19554;42.652;23.364;2022-09-27T09:53:39;93499.84;;;16.77;98.24
33191;BME280;19554;42.652;23.364;2022-09-27T09:56:25;93475.88;;;16.72;98.37
33191;BME280;19554;42.652;23.364;2022-09-27T09:59:03;93461.97;;;16.70;98.49
33191;BME280;19554;42.652;23.364;2022-09-27T10:01:41;93482.81;;;16.73;98.47
33191;BME280;19554;42.652;23.364;2022-09-27T10:04:16;93499.16;;;16.80;99.55
33191;BME280;19554;42.652;23.364;2022-09-27T10:06:42;93462.25;;;16.65;100.00
33191;BME280;19554;42.652;23.364;2022-09-27T10:09:11;93405.00;;;16.33;100.00
33191;BME280;19554;42.652;23.364;2022-09-27T10:11:40;93458.75;;;16.65;100.00
33191;BME280;19554;42.652;23.364;2022-09-27T10:14:11;93490.88;;;16.89;99.05
33191;BME280;19554;42.652;23.364;2022-09-27T10:16:39;93492.94;;;16.96;98.97
33191;BME280;19554;42.652;23.364;2022-09-27T10:19:07;93470.50;;;16.92;98.91
33191;BME280;19554;42.652;23.364;2022-09-27T10:21:37;93458.47;;;16.86;99.06
33191;BME280;19554;42.652;23.364;2022-09-27T10:24:11;93451.09;;;16.83;100.00
33191;BME280;19554;42.652;23.364;2022-09-27T10:26:38;93366.38;;;16.25;100.00
33191;BME280;19554;42.652;23.364;2022-09-27T10:31:44;93450.78;;;17.07;99.83
33191;BME280;19554;42.652;23.364;2022-09-27T10:34:32;93473.06;;;17.23;99.56
33191;BME280;19554;42.652;23.364;2022-09-27T10:37:25;93459.81;;;17.38;98.26
33191;BME280;19554;42.652;23.364;2022-09-27T10:39:50;93460.44;;;17.50;96.67
33191;BME280;19554;42.652;23.364;2022-09-27T10:47:43;93449.78;;;17.81;95.63
33191;BME280;19554;42.652;23.364;2022-09-27T10:50:24;93432.78;;;18.03;94.71
33191;BME280;19554;42.652;23.364;2022-09-27T10:53:01;93430.56;;;18.09;93.81
33191;BME280;19554;42.652;23.364;2022-09-27T10:55:34;93421.16;;;17.99;95.31
33191;BME280;19554;42.652;23.364;2022-09-27T10:58:01;93348.19;;;17.46;95.08
33191;BME280;19554;42.652;23.364;2022-09-27T11:00:32;93421.09;;;17.95;94.74
33191;BME280;19554;42.652;23.364;2022-09-27T11:03:01;93416.63;;;18.07;94.66
33191;BME280;19554;42.652;23.364;2022-09-27T11:05:37;93409.78;;;18.13;92.64
33191;BME280;19554;42.652;23.364;2022-09-27T11:08:32;93415.94;;;18.13;91.51
33191;BME280;19554;42.652;23.364;2022-09-27T11:13:37;93394.44;;;18.20;90.16
33191;BME280;19554;42.652;23.364;2022-09-27T11:16:46;93411.13;;;18.26;89.82
33191;BME280;19554;42.652;23.364;2022-09-27T11:27:37;93399.69;;;18.36;91.54
33191;BME280;19554;42.652;23.364;2022-09-27T11:30:10;93394.63;;;18.35;92.12
33191;BME280;19554;42.652;23.364;2022-09-27T11:39:08;93380.19;;;18.50;89.78
33191;BME280;19554;42.652;23.364;2022-09-27T11:47:15;93355.69;;;18.69;89.36
33191;BME280;19554;42.652;23.364;2022-09-27T11:50:11;93361.28;;;18.84;89.24
33191;BME280;19554;42.652;23.364;2022-09-27T11:52:58;93361.38;;;18.91;88.47
33191;BME280;19554;42.652;23.364;2022-09-27T11:55:38;93336.75;;;19.03;85.05
33191;BME280;19554;42.652;23.364;2022-09-27T12:03:50;93350.06;;;19.23;81.42
33191;BME280;19554;42.652;23.364;2022-09-27T12:06:24;93354.78;;;19.29;81.38
33191;BME280;19554;42.652;23.364;2022-09-27T12:09:03;93336.72;;;19.44;79.93
33191;BME280;19554;42.652;23.364;2022-09-27T12:16:53;93268.34;;;19.51;74.98
33191;BME280;19554;42.652;23.364;2022-09-27T12:19:26;93314.28;;;19.92;74.99
33191;BME280;19554;42.652;23.364;2022-09-27T12:21:57;93285.63;;;19.87;74.93
33191;BME280;19554;42.652;23.364;2022-09-27T12:24:25;93299.72;;;20.18;73.72
33191;BME280;19554;42.652;23.364;2022-09-27T12:26:58;93302.84;;;20.27;71.21
33191;BME280;19554;42.652;23.364;2022-09-27T12:29:29;93294.38;;;20.39;73.47
33191;BME280;19554;42.652;23.364;2022-09-27T12:32:15;93274.28;;;20.47;73.51
33191;BME280;19554;42.652;23.364;2022-09-27T12:40:06;93255.75;;;20.56;70.50
33191;BME280;19554;42.652;23.364;2022-09-27T12:42:47;93262.72;;;20.68;69.57
33191;BME280;19554;42.652;23.364;2022-09-27T12:45:25;93269.75;;;20.80;68.24
33191;BME280;19554;42.652;23.364;2022-09-27T12:50:46;93251.94;;;21.08;69.03
33191;BME280;19554;42.652;23.364;2022-09-27T12:53:19;93251.94;;;21.08;65.35
33191;BME280;19554;42.652;23.364;2022-09-27T13:14:31;93258.13;;;21.83;61.25
33191;BME280;19554;42.652;23.364;2022-09-27T13:16:58;93259.28;;;21.89;61.66
33191;BME280;19554;42.652;23.364;2022-09-27T13:22:02;93263.47;;;22.12;55.64
33191;BME280;19554;42.652;23.364;2022-09-27T13:32:31;93237.09;;;22.16;55.20
33191;BME280;19554;42.652;23.364;2022-09-27T13:35:22;93238.63;;;22.24;55.97
33191;BME280;19554;42.652;23.364;2022-09-27T13:37:53;93235.47;;;22.36;54.28
33191;BME280;19554;42.652;23.364;2022-09-27T13:40:25;93231.56;;;22.37;53.96
33191;BME280;19554;42.652;23.364;2022-09-27T13:45:26;93178.16;;;21.95;54.38
33191;BME280;19554;42.652;23.364;2022-09-27T13:47:54;93256.03;;;22.41;54.29
33191;BME280;19554;42.652;23.364;2022-09-27T13:50:36;93266.88;;;22.44;54.55
33191;BME280;19554;42.652;23.364;2022-09-27T13:53:07;93268.38;;;22.53;54.52
33191;BME280;19554;42.652;23.364;2022-09-27T13:55:46;93263.75;;;22.53;53.63
33191;BME280;19554;42.652;23.364;2022-09-27T13:58:23;93252.81;;;22.60;53.18
33191;BME280;19554;42.652;23.364;2022-09-27T14:00:53;93241.50;;;22.65;52.90
33191;BME280;19554;42.652;23.364;2022-09-27T14:03:31;93224.44;;;22.61;53.31
33191;BME280;19554;42.652;23.364;2022-09-27T14:06:03;93251.66;;;22.61;58.52
33191;BME280;19554;42.652;23.364;2022-09-27T14:08:42;93246.31;;;22.43;58.87
33191;BME280;19554;42.652;23.364;2022-09-27T14:11:13;93239.31;;;22.42;58.98
33191;BME280;19554;42.652;23.364;2022-09-27T14:13:42;93233.84;;;22.42;58.76
33191;BME280;19554;42.652;23.364;2022-09-27T14:16:13;93237.72;;;22.48;57.33
33191;BME280;19554;42.652;23.364;2022-09-27T14:18:55;93236.19;;;22.47;56.22
33191;BME280;19554;42.652;23.364;2022-09-27T14:21:36;93231.13;;;22.50;58.52
33191;BME280;19554;42.652;23.364;2022-09-27T14:24:22;93232.72;;;22.43;60.61
33191;BME280;19554;42.652;23.364;2022-09-27T14:27:01;93227.72;;;22.31;55.16
33191;BME280;19554;42.652;23.364;2022-09-27T14:29:31;93232.75;;;22.36;56.13
33191;BME280;19554;42.652;23.364;2022-09-27T14:32:06;93227.75;;;22.24;60.16
33191;BME280;19554;42.652;23.364;2022-09-27T14:34:34;93234.00;;;22.03;61.87
33191;BME280;19554;42.652;23.364;2022-09-27T14:36:59;93215.50;;;21.62;64.78
33191;BME280;19554;42.652;23.364;2022-09-27T14:39:44;93223.28;;;21.24;66.89
33191;BME280;19554;42.652;23.364;2022-09-27T14:42:19;93227.91;;;20.95;68.32
33191;BME280;19554;42.652;23.364;2022-09-27T14:44:45;93244.94;;;20.85;69.21
33191;BME280;19554;42.652;23.364;2022-09-27T14:47:25;93227.88;;;20.67;69.62
33191;BME280;19554;42.652;23.364;2022-09-27T14:50:12;93224.41;;;20.63;70.22
33191;BME280;19554;42.652;23.364;2022-09-27T14:52:41;93240.25;;;20.57;70.67
33191;BME280;19554;42.652;23.364;2022-09-27T14:55:16;93246.38;;;20.36;70.97
33191;BME280;19554;42.652;23.364;2022-09-27T14:57:52;93240.47;;;20.09;71.71
33191;BME280;19554;42.652;23.364;2022-09-27T15:00:22;93250.91;;;20.03;72.25
33191;BME280;19554;42.652;23.364;2022-09-27T15:02:53;93248.94;;;20.00;72.88
33191;BME280;19554;42.652;23.364;2022-09-27T15:05:22;93249.22;;;19.81;73.58
33191;BME280;19554;42.652;23.364;2022-09-27T15:07:48;93237.19;;;19.75;73.26
33191;BME280;19554;42.652;23.364;2022-09-27T15:10:19;93264.28;;;19.75;73.90
33191;BME280;19554;42.652;23.364;2022-09-27T15:12:49;93291.00;;;19.76;73.80
33191;BME280;19554;42.652;23.364;2022-09-27T15:15:21;93329.31;;;19.82;73.67
33191;BME280;19554;42.652;23.364;2022-09-27T15:17:48;93368.25;;;19.67;70.34
33191;BME280;19554;42.652;23.364;2022-09-27T15:20:23;93359.50;;;19.39;66.21
33191;BME280;19554;42.652;23.364;2022-09-27T15:22:56;93367.13;;;19.27;68.12
33191;BME280;19554;42.652;23.364;2022-09-27T15:28:00;93401.38;;;18.78;70.05
33191;BME280;19554;42.652;23.364;2022-09-27T15:30:54;93365.44;;;18.44;73.03
33191;BME280;19554;42.652;23.364;2022-09-27T15:33:25;93390.78;;;18.36;74.52
33191;BME280;19554;42.652;23.364;2022-09-27T15:35:54;93404.88;;;18.22;74.26
33191;BME280;19554;42.652;23.364;2022-09-27T15:48:46;93382.91;;;17.24;72.64
33191;BME280;19554;42.652;23.364;2022-09-27T15:51:39;93382.13;;;17.24;73.50
33191;BME280;19554;42.652;23.364;2022-09-27T15:54:04;93363.66;;;17.26;74.59